Wetterdaten: Woche 15.09.14 - 21.09.14 (KW38)
Datum Zeit Temperatur Luftfeuchte Luftdruck Niederschlag Windrichtung Sonnenschein Solar Wind
15.09.2014 00:00 14,1 C 94 % 1014,2 hPa 0,0 l/m NO 0,00 h 0 W/m 6,5 km/h (2 Bft)
15.09.2014 01:00 14,3 C 96 % 1013,9 hPa 0,0 l/m NO 0,00 h 0 W/m 9,0 km/h (2 Bft)
15.09.2014 02:00 14,3 C 95 % 1013,6 hPa 0,0 l/m O-NO 0,00 h 0 W/m 6,0 km/h (2 Bft)
15.09.2014 03:00 14,3 C 94 % 1013,5 hPa 0,0 l/m O-NO 0,00 h 0 W/m 2,8 km/h (1 Bft)
15.09.2014 04:00 14,3 C 93 % 1013,5 hPa 0,0 l/m O-NO 0,00 h 0 W/m 4,5 km/h (1 Bft)
15.09.2014 05:00 14,2 C 93 % 1013,5 hPa 0,0 l/m O-NO 0,00 h 0 W/m 4,0 km/h (1 Bft)
15.09.2014 06:00 14,0 C 93 % 1013,3 hPa 0,0 l/m N 0,00 h 0 W/m 1,2 km/h (1 Bft)
15.09.2014 07:00 13,4 C 93 % 1013,5 hPa 0,0 l/m N 0,08 h 26 W/m 1,2 km/h (1 Bft)
15.09.2014 08:00 13,7 C 96 % 1013,6 hPa 0,0 l/m O-NO 0,00 h 46 W/m 4,3 km/h (1 Bft)
15.09.2014 09:00 14,0 C 96 % 1014,0 hPa 0,0 l/m O-NO 0,00 h 103 W/m 2,9 km/h (1 Bft)
15.09.2014 10:00 15,8 C 89 % 1014,2 hPa 0,0 l/m O-NO 0,33 h 255 W/m 6,3 km/h (2 Bft)
15.09.2014 11:00 17,2 C 83 % 1014,1 hPa 0,0 l/m S 0,25 h 301 W/m 4,4 km/h (1 Bft)
15.09.2014 12:00 18,4 C 78 % 1013,5 hPa 0,0 l/m S 0,58 h 621 W/m 5,6 km/h (1 Bft)
15.09.2014 13:00 19,9 C 72 % 1013,3 hPa 0,0 l/m O-NO 0,83 h 704 W/m 9,5 km/h (2 Bft)
15.09.2014 14:00 21,3 C 68 % 1012,9 hPa 0,0 l/m O-SO 0,92 h 731 W/m 10,2 km/h (2 Bft)
15.09.2014 15:00 21,5 C 66 % 1012,5 hPa 0,0 l/m O-NO 0,67 h 488 W/m 9,7 km/h (2 Bft)
15.09.2014 16:00 20,8 C 69 % 1012,1 hPa 0,0 l/m O-NO 0,33 h 276 W/m 5,2 km/h (1 Bft)
15.09.2014 17:00 20,9 C 71 % 1012,0 hPa 0,0 l/m O-SO 0,75 h 271 W/m 10,3 km/h (2 Bft)
15.09.2014 18:00 19,3 C 77 % 1012,1 hPa 0,0 l/m O-NO 0,08 h 63 W/m 10,9 km/h (2 Bft)
15.09.2014 19:00 17,7 C 82 % 1012,2 hPa 0,0 l/m O-NO 0,00 h 14 W/m 4,7 km/h (1 Bft)
15.09.2014 20:00 16,0 C 88 % 1012,7 hPa 0,0 l/m O-NO 0,00 h 0 W/m 5,9 km/h (2 Bft)
15.09.2014 21:00 15,0 C 91 % 1013,1 hPa 0,0 l/m N 0,00 h 0 W/m 3,2 km/h (1 Bft)
15.09.2014 22:00 13,8 C 94 % 1013,2 hPa 0,0 l/m N 0,00 h 0 W/m 2,5 km/h (1 Bft)
15.09.2014 23:00 13,2 C 96 % 1013,4 hPa 0,0 l/m O-NO 0,00 h 0 W/m 3,5 km/h (1 Bft)
16.09.2014 00:00 12,7 C 96 % 1013,3 hPa 0,0 l/m O-NO 0,00 h 0 W/m 4,4 km/h (1 Bft)
16.09.2014 01:00 12,2 C 97 % 1013,3 hPa 0,0 l/m O-NO 0,00 h 0 W/m 4,0 km/h (1 Bft)
16.09.2014 02:00 11,7 C 98 % 1013,2 hPa 0,0 l/m O-NO 0,00 h 0 W/m 1,6 km/h (1 Bft)
16.09.2014 03:00 11,4 C 98 % 1013,3 hPa 0,0 l/m O-NO 0,00 h 0 W/m 1,9 km/h (1 Bft)
16.09.2014 04:00 11,4 C 98 % 1013,3 hPa 0,0 l/m O-NO 0,00 h 0 W/m 2,7 km/h (1 Bft)
16.09.2014 05:00 11,3 C 99 % 1013,3 hPa 0,0 l/m N 0,00 h 0 W/m 2,8 km/h (1 Bft)
16.09.2014 06:00 11,4 C 99 % 1013,5 hPa 0,0 l/m O-NO 0,00 h 0 W/m 2,9 km/h (1 Bft)
16.09.2014 07:00 11,5 C 99 % 1013,7 hPa 0,0 l/m N 0,00 h 10 W/m 1,6 km/h (1 Bft)
16.09.2014 08:00 11,7 C 99 % 1014,0 hPa 0,0 l/m N 0,00 h 37 W/m 1,7 km/h (1 Bft)
16.09.2014 09:00 12,2 C 100 % 1014,4 hPa 0,0 l/m N 0,00 h 89 W/m 1,6 km/h (1 Bft)
16.09.2014 10:00 13,0 C 100 % 1014,6 hPa 0,0 l/m O-NO 0,00 h 128 W/m 2,4 km/h (1 Bft)
16.09.2014 11:00 13,9 C 100 % 1014,5 hPa 0,0 l/m O-NO 0,00 h 153 W/m 1,9 km/h (1 Bft)
16.09.2014 12:00 15,2 C 96 % 1014,2 hPa 0,0 l/m O-NO 0,00 h 231 W/m 5,3 km/h (1 Bft)
16.09.2014 13:00 16,7 C 90 % 1013,7 hPa 0,0 l/m O-NO 0,75 h 492 W/m 8,8 km/h (2 Bft)
16.09.2014 14:00 18,9 C 84 % 1013,0 hPa 0,0 l/m O-NO 1,00 h 659 W/m 7,2 km/h (2 Bft)
16.09.2014 15:00 20,8 C 75 % 1012,5 hPa 0,0 l/m O 1,00 h 583 W/m 10,8 km/h (2 Bft)
16.09.2014 16:00 20,8 C 74 % 1012,3 hPa 0,0 l/m O-NO 1,00 h 472 W/m 12,6 km/h (3 Bft)
16.09.2014 17:00 20,9 C 74 % 1012,1 hPa 0,0 l/m O-NO 1,00 h 302 W/m 12,2 km/h (2 Bft)
16.09.2014 18:00 20,0 C 77 % 1012,1 hPa 0,0 l/m O-NO 0,67 h 118 W/m 10,1 km/h (2 Bft)
16.09.2014 19:00 17,7 C 87 % 1012,3 hPa 0,0 l/m O-NO 0,00 h 10 W/m 4,8 km/h (1 Bft)
16.09.2014 20:00 15,7 C 93 % 1012,6 hPa 0,0 l/m O-NO 0,00 h 0 W/m 3,3 km/h (1 Bft)
16.09.2014 21:00 14,9 C 96 % 1012,8 hPa 0,0 l/m O-NO 0,00 h 0 W/m 3,7 km/h (1 Bft)
16.09.2014 22:00 14,3 C 97 % 1012,6 hPa 0,0 l/m O-NO 0,00 h 0 W/m 4,1 km/h (1 Bft)
16.09.2014 23:00 13,7 C 97 % 1012,6 hPa 0,0 l/m NO 0,00 h 0 W/m 6,4 km/h (2 Bft)
17.09.2014 00:00 13,3 C 98 % 1012,6 hPa 0,0 l/m NO 0,00 h 0 W/m 4,3 km/h (1 Bft)
17.09.2014 01:00 13,3 C 98 % 1012,1 hPa 0,0 l/m NO 0,00 h 0 W/m 4,5 km/h (1 Bft)
17.09.2014 02:00 13,1 C 99 % 1011,8 hPa 0,0 l/m NO 0,00 h 0 W/m 4,7 km/h (1 Bft)
17.09.2014 03:00 12,9 C 99 % 1011,8 hPa 0,0 l/m NO 0,00 h 0 W/m 4,5 km/h (1 Bft)
17.09.2014 04:00 12,7 C 99 % 1011,7 hPa 0,0 l/m NO 0,00 h 0 W/m 4,8 km/h (1 Bft)
17.09.2014 05:00 12,3 C 99 % 1011,8 hPa 0,0 l/m NO 0,00 h 0 W/m 4,3 km/h (1 Bft)
17.09.2014 06:00 11,9 C 99 % 1011,7 hPa 0,0 l/m N 0,00 h 0 W/m 4,5 km/h (1 Bft)
17.09.2014 07:00 11,8 C 99 % 1011,6 hPa 0,0 l/m N 0,00 h 12 W/m 2,4 km/h (1 Bft)
17.09.2014 08:00 11,8 C 100 % 1011,5 hPa 0,0 l/m NO 0,00 h 41 W/m 3,3 km/h (1 Bft)
17.09.2014 09:00 12,3 C 100 % 1011,7 hPa 0,0 l/m N 0,00 h 95 W/m 2,3 km/h (1 Bft)
17.09.2014 10:00 13,0 C 100 % 1011,8 hPa 0,0 l/m NO 0,00 h 153 W/m 3,1 km/h (1 Bft)
17.09.2014 11:00 14,7 C 97 % 1011,6 hPa 0,0 l/m NO 0,33 h 361 W/m 4,3 km/h (1 Bft)
17.09.2014 12:00 17,2 C 87 % 1011,3 hPa 0,0 l/m NO 1,00 h 675 W/m 7,5 km/h (2 Bft)
17.09.2014 13:00 19,2 C 79 % 1010,7 hPa 0,0 l/m O-NO 1,00 h 699 W/m 7,3 km/h (2 Bft)
17.09.2014 14:00 20,9 C 74 % 1010,2 hPa 0,0 l/m O 1,00 h 668 W/m 10,9 km/h (2 Bft)
17.09.2014 15:00 21,6 C 73 % 1009,7 hPa 0,0 l/m O-NO 1,00 h 588 W/m 11,7 km/h (2 Bft)
17.09.2014 16:00 21,6 C 72 % 1009,5 hPa 0,0 l/m NO 1,00 h 470 W/m 12,2 km/h (2 Bft)
17.09.2014 17:00 21,4 C 74 % 1009,3 hPa 0,0 l/m O-NO 0,83 h 275 W/m 12,4 km/h (3 Bft)
17.09.2014 18:00 20,1 C 77 % 1009,6 hPa 0,0 l/m O-NO 0,50 h 96 W/m 8,7 km/h (2 Bft)
17.09.2014 19:00 18,1 C 85 % 1009,9 hPa 0,0 l/m N 0,08 h 12 W/m 4,0 km/h (1 Bft)
17.09.2014 20:00 16,1 C 92 % 1010,1 hPa 0,0 l/m O-NO 0,00 h 0 W/m 3,6 km/h (1 Bft)
17.09.2014 21:00 15,1 C 95 % 1010,4 hPa 0,0 l/m NO 0,00 h 0 W/m 5,6 km/h (1 Bft)
17.09.2014 22:00 14,7 C 96 % 1010,4 hPa 0,0 l/m NO 0,00 h 0 W/m 4,1 km/h (1 Bft)
17.09.2014 23:00 14,3 C 97 % 1010,4 hPa 0,0 l/m NO 0,00 h 0 W/m 4,3 km/h (1 Bft)
18.09.2014 00:00 13,6 C 97 % 1010,2 hPa 0,0 l/m NO 0,00 h 0 W/m 2,3 km/h (1 Bft)
18.09.2014 01:00 13,6 C 98 % 1010,1 hPa 0,0 l/m NO 0,00 h 0 W/m 3,3 km/h (1 Bft)
18.09.2014 02:00 13,3 C 98 % 1009,9 hPa 0,0 l/m N 0,00 h 0 W/m 1,3 km/h (1 Bft)
18.09.2014 03:00 13,0 C 98 % 1010,0 hPa 0,0 l/m N 0,00 h 0 W/m 0,3 km/h (0 Bft)
18.09.2014 04:00 12,9 C 99 % 1009,8 hPa 0,2 l/m N 0,00 h 0 W/m 2,3 km/h (1 Bft)
18.09.2014 05:00 12,5 C 99 % 1009,8 hPa 0,0 l/m N 0,00 h 0 W/m 0,8 km/h (0 Bft)
18.09.2014 06:00 12,2 C 99 % 1010,1 hPa 0,0 l/m N 0,00 h 0 W/m 0,0 km/h (0 Bft)
18.09.2014 07:00 11,8 C 99 % 1010,3 hPa 0,0 l/m N 0,00 h 19 W/m 0,0 km/h (0 Bft)
18.09.2014 08:00 11,9 C 100 % 1010,6 hPa 0,0 l/m N 0,00 h 58 W/m 0,9 km/h (0 Bft)
18.09.2014 09:00 12,6 C 100 % 1010,8 hPa 0,0 l/m N 0,00 h 139 W/m 0,8 km/h (0 Bft)
18.09.2014 10:00 14,6 C 100 % 1010,9 hPa 0,0 l/m NO 0,83 h 426 W/m 1,9 km/h (1 Bft)
18.09.2014 11:00 18,1 C 90 % 1010,3 hPa 0,0 l/m NO 0,42 h 316 W/m 3,9 km/h (1 Bft)
18.09.2014 12:00 19,6 C 85 % 1009,9 hPa 0,0 l/m NO 0,42 h 385 W/m 4,9 km/h (1 Bft)
18.09.2014 13:00 21,2 C 77 % 1009,8 hPa 0,0 l/m O-NO 0,83 h 445 W/m 5,7 km/h (1 Bft)
18.09.2014 14:00 22,4 C 72 % 1009,6 hPa 0,0 l/m SO 0,50 h 364 W/m 6,1 km/h (2 Bft)
18.09.2014 15:00 23,3 C 68 % 1009,4 hPa 0,0 l/m W-SW 0,58 h 357 W/m 5,6 km/h (1 Bft)
18.09.2014 16:00 22,7 C 72 % 1009,8 hPa 0,0 l/m W-SW 0,00 h 124 W/m 3,8 km/h (1 Bft)
18.09.2014 17:00 19,9 C 81 % 1010,4 hPa 5,4 l/m N-NO 0,00 h 19 W/m 15,0 km/h (3 Bft)
18.09.2014 18:00 15,9 C 94 % 1011,0 hPa 0,2 l/m O-SO 0,00 h 14 W/m 5,6 km/h (1 Bft)
18.09.2014 19:00 16,0 C 97 % 1011,3 hPa 0,2 l/m N 0,00 h 7 W/m 1,6 km/h (1 Bft)
18.09.2014 20:00 15,6 C 98 % 1011,1 hPa 0,0 l/m N 0,00 h 0 W/m 0,3 km/h (0 Bft)
18.09.2014 21:00 14,8 C 98 % 1011,7 hPa 0,0 l/m N 0,00 h 0 W/m 0,5 km/h (0 Bft)
18.09.2014 22:00 14,3 C 99 % 1012,1 hPa 0,0 l/m N 0,00 h 0 W/m 1,3 km/h (1 Bft)
18.09.2014 23:00 14,3 C 99 % 1012,0 hPa 0,0 l/m O-SO 0,00 h 0 W/m 2,0 km/h (1 Bft)
19.09.2014 00:00 13,7 C 99 % 1011,9 hPa 0,0 l/m N 0,00 h 0 W/m 0,4 km/h (0 Bft)
19.09.2014 01:00 13,0 C 99 % 1011,6 hPa 0,0 l/m N 0,00 h 0 W/m 0,7 km/h (0 Bft)
19.09.2014 02:00 12,4 C 99 % 1011,8 hPa 0,0 l/m N 0,00 h 0 W/m 0,0 km/h (0 Bft)
19.09.2014 03:00 12,1 C 99 % 1011,8 hPa 0,0 l/m N 0,00 h 0 W/m 0,7 km/h (0 Bft)
19.09.2014 04:00 12,7 C 100 % 1012,1 hPa 0,4 l/m O-SO 0,00 h 0 W/m 6,6 km/h (2 Bft)
19.09.2014 05:00 13,7 C 100 % 1011,5 hPa 0,2 l/m N-NW 0,00 h 0 W/m 5,5 km/h (1 Bft)
19.09.2014 06:00 12,8 C 99 % 1011,7 hPa 0,0 l/m W 0,00 h 5 W/m 2,5 km/h (1 Bft)
19.09.2014 07:00 12,7 C 100 % 1012,3 hPa 0,0 l/m N 0,00 h 11 W/m 1,5 km/h (1 Bft)
19.09.2014 08:00 13,5 C 100 % 1012,8 hPa 0,0 l/m N 0,08 h 82 W/m 0,8 km/h (0 Bft)
19.09.2014 09:00 15,1 C 100 % 1012,9 hPa 0,0 l/m W 0,17 h 161 W/m 2,7 km/h (1 Bft)
19.09.2014 10:00 16,7 C 97 % 1012,8 hPa 0,0 l/m SW 0,17 h 238 W/m 4,9 km/h (1 Bft)
19.09.2014 11:00 18,5 C 87 % 1012,7 hPa 0,0 l/m SW 0,33 h 334 W/m 6,0 km/h (2 Bft)
19.09.2014 12:00 20,7 C 71 % 1012,4 hPa 0,0 l/m SW 0,92 h 615 W/m 3,6 km/h (1 Bft)
19.09.2014 13:00 22,3 C 68 % 1012,2 hPa 0,0 l/m SW 1,00 h 697 W/m 7,5 km/h (2 Bft)
19.09.2014 14:00 23,6 C 60 % 1011,8 hPa 0,0 l/m SW 0,92 h 613 W/m 7,2 km/h (2 Bft)
19.09.2014 15:00 23,3 C 62 % 1011,7 hPa 0,0 l/m W-SW 0,25 h 286 W/m 8,3 km/h (2 Bft)
19.09.2014 16:00 23,0 C 65 % 1011,8 hPa 0,0 l/m W 0,33 h 202 W/m 8,7 km/h (2 Bft)
19.09.2014 17:00 20,9 C 73 % 1012,0 hPa 0,0 l/m W 0,00 h 34 W/m 2,9 km/h (1 Bft)
19.09.2014 18:00 19,7 C 83 % 1012,4 hPa 0,0 l/m N 0,00 h 37 W/m 1,5 km/h (1 Bft)
19.09.2014 19:00 18,4 C 89 % 1012,5 hPa 0,0 l/m N 0,00 h 6 W/m 0,7 km/h (0 Bft)
19.09.2014 20:00 16,9 C 93 % 1012,7 hPa 0,0 l/m N 0,00 h 0 W/m 0,1 km/h (0 Bft)
19.09.2014 21:00 15,6 C 95 % 1013,1 hPa 0,0 l/m N 0,00 h 0 W/m 0,0 km/h (0 Bft)
19.09.2014 22:00 15,1 C 96 % 1013,3 hPa 0,0 l/m N 0,00 h 0 W/m 0,0 km/h (0 Bft)
19.09.2014 23:00 14,9 C 98 % 1013,7 hPa 0,0 l/m W 0,00 h 0 W/m 2,0 km/h (1 Bft)
20.09.2014 00:00 15,2 C 98 % 1014,2 hPa 0,4 l/m W 0,00 h 0 W/m 2,8 km/h (1 Bft)
20.09.2014 01:00 15,3 C 98 % 1013,8 hPa 0,2 l/m W 0,00 h 0 W/m 2,1 km/h (1 Bft)
20.09.2014 02:00 15,1 C 99 % 1013,5 hPa 0,0 l/m W 0,00 h 0 W/m 0,7 km/h (0 Bft)
20.09.2014 03:00 15,2 C 99 % 1013,5 hPa 0,2 l/m W 0,00 h 0 W/m 2,0 km/h (1 Bft)
20.09.2014 04:00 15,2 C 99 % 1013,5 hPa 1,2 l/m W 0,00 h 0 W/m 2,0 km/h (1 Bft)
20.09.2014 05:00 15,2 C 99 % 1013,4 hPa 0,0 l/m W 0,00 h 0 W/m 2,1 km/h (1 Bft)
20.09.2014 06:00 15,0 C 99 % 1012,9 hPa 0,8 l/m N 0,00 h 0 W/m 0,8 km/h (0 Bft)
20.09.2014 07:00 14,8 C 99 % 1013,0 hPa 0,2 l/m W 0,00 h 7 W/m 2,7 km/h (1 Bft)
20.09.2014 08:00 15,1 C 99 % 1013,5 hPa 0,0 l/m W 0,00 h 32 W/m 9,0 km/h (2 Bft)
20.09.2014 09:00 15,9 C 99 % 1013,4 hPa 0,0 l/m W-SW 0,08 h 151 W/m 5,4 km/h (1 Bft)
20.09.2014 10:00 17,1 C 96 % 1013,7 hPa 0,0 l/m W-SW 0,00 h 164 W/m 13,4 km/h (3 Bft)
20.09.2014 11:00 17,8 C 91 % 1014,0 hPa 0,0 l/m W-SW 0,00 h 192 W/m 10,5 km/h (2 Bft)
20.09.2014 12:00 18,8 C 89 % 1013,9 hPa 0,0 l/m W-SW 0,00 h 193 W/m 11,0 km/h (2 Bft)
20.09.2014 13:00 19,9 C 81 % 1013,5 hPa 0,0 l/m W 0,17 h 334 W/m 15,3 km/h (3 Bft)
20.09.2014 14:00 21,1 C 73 % 1013,3 hPa 0,0 l/m W-SW 0,83 h 616 W/m 18,0 km/h (3 Bft)
20.09.2014 15:00 21,9 C 69 % 1013,2 hPa 0,0 l/m SW 0,67 h 490 W/m 16,9 km/h (3 Bft)
20.09.2014 16:00 21,4 C 72 % 1012,8 hPa 0,0 l/m W-SW 0,58 h 336 W/m 11,3 km/h (2 Bft)
20.09.2014 17:00 21,0 C 75 % 1012,9 hPa 0,0 l/m W-SW 0,42 h 166 W/m 9,2 km/h (2 Bft)
20.09.2014 18:00 19,4 C 82 % 1012,8 hPa 0,0 l/m W-SW 0,00 h 28 W/m 10,7 km/h (2 Bft)
20.09.2014 19:00 18,2 C 87 % 1013,1 hPa 0,0 l/m W-SW 0,00 h 8 W/m 8,0 km/h (2 Bft)
20.09.2014 20:00 17,5 C 84 % 1013,8 hPa 0,0 l/m W 0,00 h 0 W/m 8,2 km/h (2 Bft)
20.09.2014 21:00 15,8 C 85 % 1014,2 hPa 0,0 l/m N 0,00 h 0 W/m 1,2 km/h (1 Bft)
20.09.2014 22:00 14,0 C 93 % 1014,3 hPa 0,0 l/m W 0,00 h 0 W/m 0,7 km/h (0 Bft)
20.09.2014 23:00 13,2 C 95 % 1014,4 hPa 0,0 l/m W 0,00 h 0 W/m 1,9 km/h (1 Bft)
21.09.2014 00:00 12,7 C 96 % 1014,6 hPa 0,0 l/m N 0,00 h 0 W/m 0,0 km/h (0 Bft)
21.09.2014 01:00 12,9 C 97 % 1014,5 hPa 0,0 l/m N 0,00 h 0 W/m 0,1 km/h (0 Bft)
21.09.2014 02:00 12,9 C 98 % 1014,4 hPa 0,0 l/m N 0,00 h 0 W/m 0,7 km/h (0 Bft)
21.09.2014 03:00 13,5 C 98 % 1014,0 hPa 0,0 l/m N 0,00 h 0 W/m 0,4 km/h (0 Bft)
21.09.2014 04:00 13,3 C 99 % 1013,7 hPa 0,0 l/m W-SW 0,00 h 0 W/m 2,8 km/h (1 Bft)
21.09.2014 05:00 14,4 C 99 % 1013,5 hPa 0,0 l/m SW 0,00 h 0 W/m 7,9 km/h (2 Bft)
21.09.2014 06:00 14,5 C 99 % 1013,3 hPa 0,0 l/m W-NW 0,00 h 0 W/m 6,7 km/h (2 Bft)
21.09.2014 07:00 14,8 C 98 % 1013,4 hPa 0,4 l/m W-SW 0,00 h 12 W/m 12,1 km/h (2 Bft)
21.09.2014 08:00 14,5 C 97 % 1013,6 hPa 0,8 l/m W-SW 0,00 h 36 W/m 15,3 km/h (3 Bft)
21.09.2014 09:00 14,8 C 97 % 1013,7 hPa 0,8 l/m W-SW 0,00 h 60 W/m 15,2 km/h (3 Bft)
21.09.2014 10:00 15,4 C 96 % 1013,8 hPa 0,0 l/m W-SW 0,00 h 140 W/m 20,2 km/h (4 Bft)
21.09.2014 11:00 16,3 C 94 % 1013,7 hPa 0,0 l/m W-SW 0,17 h 315 W/m 22,1 km/h (4 Bft)
21.09.2014 12:00 17,5 C 87 % 1013,7 hPa 0,0 l/m W 0,00 h 218 W/m 20,9 km/h (4 Bft)
21.09.2014 13:00 18,8 C 80 % 1012,9 hPa 0,0 l/m W 0,50 h 473 W/m 20,2 km/h (4 Bft)
21.09.2014 14:00 19,4 C 78 % 1012,3 hPa 0,0 l/m W 0,33 h 333 W/m 18,1 km/h (3 Bft)
21.09.2014 15:00 15,3 C 92 % 1012,5 hPa 3,8 l/m W-NW 0,00 h 23 W/m 12,9 km/h (3 Bft)
21.09.2014 16:00 14,4 C 96 % 1012,7 hPa 3,4 l/m W 0,00 h 16 W/m 6,7 km/h (2 Bft)
21.09.2014 17:00 14,6 C 97 % 1012,7 hPa 0,2 l/m SW 0,00 h 34 W/m 8,6 km/h (2 Bft)
21.09.2014 18:00 14,3 C 98 % 1012,6 hPa 0,8 l/m SW 0,00 h 15 W/m 12,1 km/h (2 Bft)
21.09.2014 19:00 14,1 C 98 % 1012,8 hPa 0,8 l/m W-SW 0,00 h 7 W/m 13,4 km/h (3 Bft)
21.09.2014 20:00 14,1 C 98 % 1013,0 hPa 2,2 l/m W-SW 0,00 h 0 W/m 10,5 km/h (2 Bft)
21.09.2014 21:00 13,2 C 98 % 1014,0 hPa 1,0 l/m N-NW 0,00 h 0 W/m 14,2 km/h (3 Bft)
21.09.2014 22:00 12,2 C 97 % 1014,7 hPa 1,8 l/m N-NW 0,00 h 0 W/m 13,3 km/h (3 Bft)
21.09.2014 23:00 11,8 C 98 % 1015,1 hPa 0,4 l/m N-NW 0,00 h 0 W/m 4,4 km/h (1 Bft)
Min-Datum _ 16.09.14 19.09.14 17.09.14 - - - - 15.09.14
_ Min-Zeit 03:05 14:45 17:20 - - - - 02:55
Minimum _ 11,3 C 57 % 1009,1 hPa - - - - 0,0 km/h (0 Bft)
Max-Datum _ 19.09.14 16.09.14 21.09.14 18.09.14 - 15.09.14 15.09.14 18.09.14
_ Max-Zeit 14:55 08:25 23:50 17:35 - 07:10 13:20 17:30
Maximum _ 24,1 C 100 % 1015,6 hPa 5,4 l/m - 0,08 h 882 W/m 30,6 km/h
W-SW (5 Bft)
Durchschnitt _ 15,8 C 91 % 1012,5 hPa #26,0 l/m O-NO #28:30 h 236 W/m 5,7 km/h (1 Bft)